Time;durP1;ratioP1;P1;durP2;ratioP2;P2;SDS_P1;SDS_P2;PMS_P1;PMS_P2;Temp;Humidity;BMP_temperature;BMP_pressure;BME280_temperature;BME280_humidity;BME280_pressure;Samples;Min_cycle;Max_cycle;Signal;HPM_P1;HPM_P2
2023/09/03 00:02:12;;;;;;;1.73;1.52;;;20.70;84.40;;;;;;5052711;28;20044;-35
2023/09/03 00:04:39;;;;;;;2.03;1.67;;;20.50;84.10;;;;;;5052479;28;20132;-38
2023/09/03 00:07:05;;;;;;;2.25;1.48;;;21.00;74.00;;;;;;5052377;28;20136;-34
2023/09/03 00:09:33;;;;;;;1.73;1.50;;;20.50;84.00;;;;;;5072355;28;20147;-39
2023/09/03 00:12:00;;;;;;;1.45;1.30;;;20.80;71.30;;;;;;5072022;28;20539;-35
2023/09/03 00:14:28;;;;;;;1.58;1.38;;;20.50;84.00;;;;;;5071663;28;20136;-37
2023/09/03 00:16:54;;;;;;;1.95;1.50;;;20.10;84.70;;;;;;5064605;28;20127;-36
2023/09/03 00:19:21;;;;;;;1.63;1.30;;;21.30;85.00;;;;;;5072325;28;20463;-37
2023/09/03 00:21:48;;;;;;;1.52;1.20;;;20.20;68.80;;;;;;5072026;28;20127;-34
2023/09/03 00:24:15;;;;;;;1.60;1.40;;;;;;;;;;5071885;28;20480;-35
2023/09/03 00:26:42;;;;;;;2.05;1.48;;;;;;;;;;5071942;28;20159;-34
2023/09/03 00:29:09;;;;;;;1.95;1.40;;;20.40;84.10;;;;;;5071874;28;20048;-36
2023/09/03 00:31:37;;;;;;;1.67;1.40;;;20.60;85.00;;;;;;5071681;28;20119;-39
2023/09/03 00:34:04;;;;;;;1.40;1.30;;;;;;;;;;5070789;28;20048;-38
2023/09/03 00:36:31;;;;;;;1.77;1.50;;;20.40;84.40;;;;;;5071382;28;20090;-37
2023/09/03 00:38:58;;;;;;;2.08;1.67;;;20.90;84.80;;;;;;5071776;28;20132;-37
2023/09/03 00:41:25;;;;;;;1.80;1.50;;;20.90;72.00;;;;;;5071635;28;20067;-34
2023/09/03 00:43:51;;;;;;;1.80;1.55;;;20.50;84.40;;;;;;5071405;28;20151;-40
2023/09/03 00:46:18;;;;;;;1.95;1.60;;;21.30;85.40;;;;;;5071993;28;20131;-34
2023/09/03 00:48:46;;;;;;;1.95;1.40;;;20.70;68.20;;;;;;5064230;28;20128;-36
2023/09/03 00:51:13;;;;;;;1.58;1.40;;;;;;;;;;5051757;28;20144;-35
2023/09/03 00:53:42;;;;;;;1.45;1.33;;;20.90;84.40;;;;;;5051321;28;20140;-37
2023/09/03 00:56:09;;;;;;;1.70;1.60;;;;;;;;;;5051651;28;20140;-33
2023/09/03 00:58:36;;;;;;;2.33;1.50;;;20.30;84.50;;;;;;5052499;28;20087;-38
2023/09/03 01:01:03;;;;;;;1.80;1.40;;;;;;;;;;5055817;28;20072;-34
2023/09/03 01:03:30;;;;;;;1.75;1.42;;;20.80;84.70;;;;;;5055570;28;20460;-37
2023/09/03 01:05:58;;;;;;;1.58;1.48;;;20.60;67.00;;;;;;5056776;28;20132;-33
2023/09/03 01:08:25;;;;;;;2.00;1.58;;;;;;;;;;5066577;28;20128;-33
2023/09/03 01:10:59;;;;;;;1.98;1.58;;;20.60;84.20;;;;;;5075722;28;20139;-34
2023/09/03 01:13:28;;;;;;;2.03;1.48;;;20.60;67.00;;;;;;5075470;28;20473;-36
2023/09/03 01:15:55;;;;;;;1.40;1.30;;;;;;;;;;5075623;28;20127;-38
2023/09/03 01:18:22;;;;;;;1.80;1.50;;;20.50;67.00;;;;;;5075442;28;20165;-34
2023/09/03 01:20:58;;;;;;;2.22;1.40;;;20.20;72.70;;;;;;5064477;28;20128;-34
2023/09/03 01:23:34;;;;;;;1.75;1.50;;;20.10;84.30;;;;;;5055353;28;20056;-36
2023/09/03 01:26:09;;;;;;;2.13;1.40;;;20.60;84.60;;;;;;5055423;28;20068;-39
2023/09/03 01:28:38;;;;;;;1.85;1.60;;;20.50;67.00;;;;;;5055297;28;20052;-33
2023/09/03 01:31:07;;;;;;;1.70;1.40;;;20.70;84.70;;;;;;5056291;28;20045;-38
2023/09/03 01:33:34;;;;;;;1.70;1.40;;;20.70;70.70;;;;;;5074557;28;20049;-38
2023/09/03 01:36:02;;;;;;;1.98;1.60;;;19.80;84.00;;;;;;5074828;28;20131;-36
2023/09/03 01:38:29;;;;;;;1.50;1.38;;;20.60;84.20;;;;;;5075196;28;20052;-35
2023/09/03 01:40:56;;;;;;;1.55;1.35;;;21.10;85.00;;;;;;5074947;28;20131;-36
2023/09/03 01:43:22;;;;;;;1.52;1.30;;;20.80;69.10;;;;;;5073062;28;20053;-32
2023/09/03 01:45:55;;;;;;;1.70;1.50;;;21.30;68.90;;;;;;5054970;28;20133;-36
2023/09/03 01:48:26;;;;;;;1.50;1.40;;;20.40;84.50;;;;;;5054975;28;20558;-39
2023/09/03 01:50:56;;;;;;;1.65;1.40;;;20.10;84.20;;;;;;5054887;28;20573;-38
2023/09/03 01:53:27;;;;;;;1.60;1.40;;;20.20;84.40;;;;;;5054667;28;20131;-33
2023/09/03 01:55:57;;;;;;;1.50;1.20;;;20.50;66.90;;;;;;5054887;28;20132;-36
2023/09/03 01:58:26;;;;;;;1.70;1.48;;;20.30;84.50;;;;;;5054737;28;20048;-36
2023/09/03 02:00:54;;;;;;;1.80;1.58;;;20.50;66.90;;;;;;5067989;28;20136;-33
2023/09/03 02:03:21;;;;;;;1.30;1.20;;;;;;;;;;5074498;28;20516;-32
2023/09/03 02:05:48;;;;;;;1.70;1.50;;;19.80;83.80;;;;;;5074783;28;20080;-35
2023/09/03 02:08:15;;;;;;;2.75;1.60;;;;;;;;;;5074588;28;20123;-36
2023/09/03 02:10:41;;;;;;;1.98;1.52;;;20.50;76.10;;;;;;5073204;28;20459;-38
2023/09/03 02:13:08;;;;;;;1.60;1.50;;;21.00;81.30;;;;;;5074182;28;20124;-35
2023/09/03 02:15:35;;;;;;;1.50;1.40;;;19.50;82.90;;;;;;5073725;28;20604;-39
2023/09/03 02:18:03;;;;;;;2.20;1.80;;;20.60;69.10;;;;;;5073996;28;20128;-36
2023/09/03 02:20:30;;;;;;;1.80;1.50;;;20.90;74.50;;;;;;5074235;28;20131;-35
2023/09/03 02:22:56;;;;;;;2.30;1.63;;;20.90;84.40;;;;;;5070651;28;20059;-38
2023/09/03 02:25:23;;;;;;;2.17;1.63;;;19.20;83.70;;;;;;5063172;28;20128;-36
2023/09/03 02:27:50;;;;;;;2.10;1.65;;;;;;;;;;5064436;28;20141;-37
2023/09/03 02:30:19;;;;;;;1.65;1.50;;;;;;;;;;5063624;28;20057;-36
2023/09/03 02:32:46;;;;;;;2.38;1.80;;;20.50;70.10;;;;;;5062319;28;20048;-34
2023/09/03 02:35:14;;;;;;;1.50;1.40;;;20.50;84.20;;;;;;5060048;28;20120;-37
2023/09/03 02:37:41;;;;;;;2.03;1.70;;;21.00;84.90;;;;;;5061862;28;20136;-37
2023/09/03 02:40:09;;;;;;;1.65;1.50;;;20.40;66.80;;;;;;5061771;28;20132;-36
2023/09/03 02:42:36;;;;;;;1.83;1.60;;;;;;;;;;5063400;28;20128;-37
2023/09/03 02:45:04;;;;;;;1.80;1.50;;;20.40;76.90;;;;;;5063477;28;20123;-36
2023/09/03 02:47:30;;;;;;;3.20;1.55;;;21.50;67.40;;;;;;5062696;28;20057;-35
2023/09/03 02:49:57;;;;;;;1.55;1.42;;;19.40;84.10;;;;;;5063393;28;20461;-38
2023/09/03 02:52:25;;;;;;;1.80;1.60;;;20.80;84.80;;;;;;5062526;28;20139;-31
2023/09/03 02:54:52;;;;;;;1.90;1.70;;;20.00;84.40;;;;;;5062320;28;20623;-30
2023/09/03 02:57:19;;;;;;;1.70;1.42;;;20.30;73.40;;;;;;5063458;28;20140;-30
2023/09/03 02:59:45;;;;;;;1.85;1.65;;;20.30;84.50;;;;;;5064089;28;20585;-29
2023/09/03 03:02:12;;;;;;;2.72;1.85;;;19.80;84.30;;;;;;5062069;28;20406;-32
2023/09/03 03:04:39;;;;;;;2.45;1.75;;;19.50;68.80;;;;;;5061329;28;20120;-31
2023/09/03 03:07:06;;;;;;;1.70;1.50;;;20.70;72.20;;;;;;5064088;28;20164;-31
2023/09/03 03:09:34;;;;;;;1.70;1.60;;;19.30;84.10;;;;;;5061214;28;20049;-31
2023/09/03 03:12:00;;;;;;;2.13;1.60;;;20.70;84.50;;;;;;5061192;28;20132;-30
2023/09/03 03:14:27;;;;;;;2.00;1.80;;;20.70;72.60;;;;;;5063645;28;20183;-31
2023/09/03 03:16:54;;;;;;;1.60;1.50;;;20.10;84.50;;;;;;5053103;28;20051;-30
2023/09/03 03:19:21;;;;;;;2.17;1.70;;;20.90;84.90;;;;;;5052881;28;20123;-30
2023/09/03 03:21:48;;;;;;;2.22;1.80;;;;;;;;;;5052292;28;20136;-33
2023/09/03 03:24:14;;;;;;;2.10;1.50;;;20.00;84.40;;;;;;5063425;28;20056;-30
2023/09/03 03:26:42;;;;;;;2.05;1.73;;;20.40;84.60;;;;;;5062956;28;20749;-31
2023/09/03 03:29:09;;;;;;;1.90;1.70;;;19.80;84.40;;;;;;5061721;28;20073;-31
2023/09/03 03:31:36;;;;;;;3.55;1.60;;;20.10;80.20;;;;;;5055318;28;20447;-32
2023/09/03 03:34:03;;;;;;;2.20;1.70;;;19.90;84.10;;;;;;5052830;28;20053;-31
2023/09/03 03:36:29;;;;;;;2.30;1.85;;;21.00;82.00;;;;;;5058880;28;20127;-30
2023/09/03 03:38:56;;;;;;;2.42;1.58;;;19.50;70.70;;;;;;5072867;28;20586;-33
2023/09/03 03:41:23;;;;;;;1.60;1.50;;;20.00;84.40;;;;;;5072676;28;20064;-31
2023/09/03 03:43:51;;;;;;;1.90;1.52;;;19.90;84.00;;;;;;5072522;28;20127;-30
2023/09/03 03:46:19;;;;;;;1.80;1.52;;;20.20;66.70;;;;;;5072652;28;20045;-33
2023/09/03 03:48:45;;;;;;;1.67;1.52;;;19.90;83.90;;;;;;5072700;28;20076;-30
2023/09/03 03:51:13;;;;;;;1.92;1.65;;;;;;;;;;5071553;28;20052;-32
2023/09/03 03:53:39;;;;;;;1.90;1.70;;;20.10;84.10;;;;;;5052375;28;20098;-30
2023/09/03 03:56:07;;;;;;;1.98;1.60;;;;;;;;;;5052679;28;20132;-34
2023/09/03 03:58:34;;;;;;;1.88;1.67;;;20.20;66.70;;;;;;5052521;28;20476;-31
2023/09/03 04:01:12;;;;;;;2.05;1.70;;;20.60;69.80;;;;;;5052267;28;20484;-32
2023/09/03 04:03:39;;;;;;;2.03;1.70;;;;;;;;;;5051983;28;20045;-33
2023/09/03 04:06:06;;;;;;;2.35;1.63;;;;;;;;;;5052558;28;20477;-30
2023/09/03 04:08:34;;;;;;;1.70;1.50;;;20.10;66.60;;;;;;5053734;28;20123;-30
2023/09/03 04:11:02;;;;;;;1.75;1.65;;;20.20;66.70;;;;;;5052363;28;20136;-32
2023/09/03 04:13:29;;;;;;;1.70;1.50;;;;;;;;;;5051716;28;20132;-34
2023/09/03 04:15:56;;;;;;;1.50;1.40;;;20.10;71.40;;;;;;5052288;28;20131;-31
2023/09/03 04:18:24;;;;;;;1.60;1.50;;;20.20;66.60;;;;;;5052340;28;20128;-32
2023/09/03 04:20:52;;;;;;;1.52;1.30;;;20.20;66.70;;;;;;5059713;28;20564;-31
2023/09/03 04:23:19;;;;;;;2.42;1.60;;;20.10;84.10;;;;;;5070302;28;20040;-30
2023/09/03 04:25:45;;;;;;;1.65;1.50;;;21.00;75.20;;;;;;5051918;28;20049;-33
2023/09/03 04:28:12;;;;;;;1.80;1.50;;;20.80;84.90;;;;;;5052172;28;20123;-30
2023/09/03 04:30:39;;;;;;;1.70;1.60;;;20.80;68.70;;;;;;5051836;28;20132;-30
2023/09/03 04:33:07;;;;;;;1.65;1.50;;;20.20;66.80;;;;;;5051377;28;20128;-31
2023/09/03 04:35:35;;;;;;;1.70;1.50;;;20.10;66.60;;;;;;5051708;28;20124;-32
2023/09/03 04:38:02;;;;;;;1.60;1.50;;;19.60;68.90;;;;;;5069670;28;20135;-30
2023/09/03 04:40:29;;;;;;;1.67;1.58;;;19.50;77.30;;;;;;5057706;28;20139;-30
2023/09/03 04:42:56;;;;;;;1.50;1.40;;;20.30;84.60;;;;;;5051357;28;20128;-31
2023/09/03 04:45:22;;;;;;;2.97;1.58;;;19.00;83.50;;;;;;5051641;28;20049;-36
2023/09/03 04:47:49;;;;;;;2.40;1.40;;;20.00;84.10;;;;;;5057863;28;20131;-36
2023/09/03 04:50:16;;;;;;;1.60;1.40;;;20.40;84.40;;;;;;5071670;28;20136;-37
2023/09/03 04:52:45;;;;;;;1.50;1.40;;;;;;;;;;5071516;28;20120;-35
2023/09/03 04:55:12;;;;;;;1.60;1.40;;;19.50;84.30;;;;;;5070095;28;20127;-36
2023/09/03 04:57:39;;;;;;;1.50;1.40;;;;;;;;;;5071596;28;20052;-33
2023/09/03 05:00:07;;;;;;;1.50;1.33;;;20.10;84.50;;;;;;5071929;28;20131;-38
2023/09/03 05:02:34;;;;;;;1.40;1.30;;;19.20;69.90;;;;;;5071311;28;20149;-35
2023/09/03 05:05:01;;;;;;;1.60;1.50;;;;;;;;;;5071649;28;20131;-32
2023/09/03 05:07:27;;;;;;;1.40;1.30;;;19.80;84.00;;;;;;5061244;28;20128;-35
2023/09/03 05:09:56;;;;;;;3.58;1.48;;;19.90;84.10;;;;;;5053769;28;20144;-38
2023/09/03 05:12:22;;;;;;;1.40;1.30;;;20.80;84.60;;;;;;5051051;28;20088;-37
2023/09/03 05:14:49;;;;;;;1.38;1.20;;;19.80;84.10;;;;;;5051728;28;20132;-37
2023/09/03 05:17:16;;;;;;;1.52;1.30;;;20.30;84.90;;;;;;5060461;28;20501;-37
2023/09/03 05:19:44;;;;;;;2.53;1.50;;;;;;;;;;5070888;28;20122;-35
2023/09/03 05:22:11;;;;;;;2.50;1.48;;;;;;;;;;5070817;28;20060;-32
2023/09/03 05:24:37;;;;;;;1.35;1.23;;;19.90;84.20;;;;;;5071337;28;20127;-37
2023/09/03 05:27:06;;;;;;;1.38;1.27;;;20.00;84.70;;;;;;5071683;28;20135;-35
2023/09/03 05:29:32;;;;;;;1.85;1.48;;;20.30;84.90;;;;;;5071377;28;20136;-39
2023/09/03 05:31:59;;;;;;;2.13;1.70;;;;;;;;;;5071449;28;20128;-33
2023/09/03 05:34:27;;;;;;;1.85;1.40;;;;;;;;;;5070964;28;20127;-39
2023/09/03 05:36:54;;;;;;;1.63;1.33;;;20.10;83.20;;;;;;5069269;28;20051;-35
2023/09/03 05:39:21;;;;;;;1.50;1.30;;;20.00;84.30;;;;;;5051171;28;20127;-37
2023/09/03 05:41:47;;;;;;;1.90;1.70;;;20.00;84.70;;;;;;5051063;28;20128;-38
2023/09/03 05:44:15;;;;;;;1.60;1.50;;;19.70;75.50;;;;;;5050722;28;20570;-36
2023/09/03 05:46:43;;;;;;;1.88;1.50;;;19.60;83.60;;;;;;5055007;28;20079;-35
2023/09/03 05:49:09;;;;;;;1.73;1.50;;;20.10;84.40;;;;;;5054981;28;20053;-40
2023/09/03 05:51:36;;;;;;;1.40;1.30;;;20.60;74.90;;;;;;5056096;28;20127;-37
2023/09/03 05:54:03;;;;;;;1.60;1.40;;;;;;;;;;5054418;28;20049;-39
2023/09/03 05:56:30;;;;;;;2.10;1.50;;;;;;;;;;5055004;28;20135;-33
2023/09/03 05:59:02;;;;;;;2.05;1.75;;;20.20;84.40;;;;;;5054905;28;20140;-39
2023/09/03 06:01:30;;;;;;;1.60;1.50;;;20.60;84.60;;;;;;5054633;28;20514;-38
2023/09/03 06:03:58;;;;;;;1.55;1.38;;;;;;;;;;5054342;28;20045;-38
2023/09/03 06:06:25;;;;;;;1.65;1.40;;;19.70;84.20;;;;;;5054491;28;20103;-37
2023/09/03 06:08:52;;;;;;;1.60;1.40;;;19.40;84.00;;;;;;5070664;28;20124;-37
2023/09/03 06:11:19;;;;;;;2.28;1.63;;;;;;;;;;5074616;28;20131;-36
2023/09/03 06:13:46;;;;;;;1.50;1.27;;;;;;;;;;5073978;28;20498;-36
2023/09/03 06:16:13;;;;;;;1.63;1.40;;;;;;;;;;5074458;28;20463;-35
2023/09/03 06:18:41;;;;;;;1.73;1.50;;;20.10;84.80;;;;;;5074546;28;20052;-35
2023/09/03 06:21:08;;;;;;;1.60;1.50;;;19.60;84.20;;;;;;5073963;28;20673;-35
2023/09/03 06:23:35;;;;;;;1.50;1.40;;;;;;;;;;5073460;28;20123;-35
2023/09/03 06:26:02;;;;;;;1.75;1.50;;;;;;;;;;5074418;28;20139;-37
2023/09/03 06:28:29;;;;;;;1.55;1.38;;;20.30;81.50;;;;;;5074266;28;20135;-37
2023/09/03 06:30:57;;;;;;;2.13;1.58;;;20.00;72.80;;;;;;5074273;28;20055;-34
2023/09/03 06:33:23;;;;;;;1.65;1.40;;;20.20;69.50;;;;;;5073764;28;20050;-32
2023/09/03 06:35:51;;;;;;;2.35;1.60;;;20.20;80.10;;;;;;5073449;28;20454;-32
2023/09/03 06:38:18;;;;;;;1.80;1.60;;;;;;;;;;5073485;28;20140;-30
2023/09/03 06:40:45;;;;;;;1.95;1.60;;;20.80;85.00;;;;;;5053922;28;20123;-30
2023/09/03 06:43:12;;;;;;;1.85;1.60;;;20.10;74.20;;;;;;5060848;28;20052;-31
2023/09/03 06:45:38;;;;;;;1.90;1.60;;;20.30;85.00;;;;;;5074040;28;20123;-30
2023/09/03 06:48:06;;;;;;;1.52;1.42;;;19.70;84.70;;;;;;5073949;28;20318;-30
2023/09/03 06:50:33;;;;;;;1.77;1.48;;;;;;;;;;5074081;28;20083;-30
2023/09/03 06:53:01;;;;;;;1.75;1.52;;;20.10;81.00;;;;;;5073840;28;20123;-30
2023/09/03 06:55:27;;;;;;;1.70;1.45;;;19.80;84.70;;;;;;5064971;28;20144;-29
2023/09/03 06:57:54;;;;;;;1.58;1.40;;;18.90;72.40;;;;;;5053110;28;20136;-31
2023/09/03 07:00:21;;;;;;;2.03;1.50;;;19.40;84.20;;;;;;5053969;28;20136;-29
2023/09/03 07:02:48;;;;;;;1.55;1.40;;;20.20;85.10;;;;;;5053275;28;20529;-30
2023/09/03 07:05:15;;;;;;;2.60;1.45;;;19.80;71.50;;;;;;5053912;28;20079;-31
2023/09/03 07:07:42;;;;;;;1.80;1.58;;;21.00;76.00;;;;;;5058767;28;20127;-30
2023/09/03 07:10:11;;;;;;;2.00;1.73;;;19.60;79.30;;;;;;5071205;28;20131;-29
2023/09/03 07:12:37;;;;;;;2.75;1.60;;;20.50;84.70;;;;;;5071768;28;20132;-30
2023/09/03 07:15:05;;;;;;;2.33;1.60;;;19.80;77.00;;;;;;5073298;28;20131;-30
2023/09/03 07:17:32;;;;;;;1.77;1.40;;;19.00;84.10;;;;;;5073390;28;20327;-30
2023/09/03 07:19:59;;;;;;;2.13;1.50;;;20.70;75.80;;;;;;5073189;28;20135;-32
2023/09/03 07:22:26;;;;;;;1.63;1.40;;;20.20;84.60;;;;;;5073222;28;20056;-30
2023/09/03 07:24:53;;;;;;;1.63;1.33;;;20.60;84.80;;;;;;5073177;28;20553;-29
2023/09/03 07:27:21;;;;;;;1.55;1.40;;;20.50;85.10;;;;;;5071593;28;20044;-29
2023/09/03 07:29:51;;;;;;;1.65;1.42;;;18.80;84.30;;;;;;5073079;28;20139;-30
2023/09/03 07:32:18;;;;;;;3.53;1.95;;;;;;;;;;5073036;28;20127;-30
2023/09/03 07:34:45;;;;;;;2.35;1.58;;;19.90;84.90;;;;;;5073187;28;20136;-30
2023/09/03 07:37:12;;;;;;;1.60;1.45;;;19.50;84.70;;;;;;5072332;28;20044;-30
2023/09/03 07:39:38;;;;;;;1.83;1.40;;;20.40;85.30;;;;;;5073003;28;20127;-30
2023/09/03 07:42:06;;;;;;;1.25;1.15;;;19.90;67.00;;;;;;5072722;28;20131;-33
2023/09/03 07:44:34;;;;;;;2.00;1.45;;;20.80;85.10;;;;;;5055577;28;20496;-30
2023/09/03 07:47:01;;;;;;;1.58;1.40;;;21.00;85.20;;;;;;5052760;28;20103;-30
2023/09/03 07:49:28;;;;;;;2.03;1.30;;;;;;;;;;5052925;28;20094;-33
2023/09/03 07:51:55;;;;;;;2.00;1.60;;;20.20;80.50;;;;;;5052636;28;20049;-30
2023/09/03 07:54:22;;;;;;;1.48;1.38;;;;;;;;;;5052433;28;20049;-34
2023/09/03 07:56:49;;;;;;;1.88;1.60;;;;;;;;;;5052860;28;20131;-30
2023/09/03 07:59:16;;;;;;;1.35;1.20;;;;;;;;;;5053476;28;20469;-34
2023/09/03 08:01:44;;;;;;;1.77;1.45;;;20.30;84.90;;;;;;5052609;28;20053;-29
2023/09/03 08:04:11;;;;;;;1.60;1.27;;;19.50;84.50;;;;;;5052149;28;20131;-30
2023/09/03 08:06:37;;;;;;;2.75;1.40;;;19.40;84.90;;;;;;5066630;28;20131;-30
2023/09/03 08:09:05;;;;;;;1.48;1.30;;;;;;;;;;5068837;28;20131;-32
2023/09/03 08:11:33;;;;;;;1.70;1.40;;;;;;;;;;5072578;28;20049;-33
2023/09/03 08:14:00;;;;;;;1.27;1.17;;;20.20;85.20;;;;;;5071995;28;20139;-30
2023/09/03 08:16:27;;;;;;;1.98;1.40;;;;;;;;;;5054060;28;20115;-30
2023/09/03 08:18:55;;;;;;;2.05;1.40;;;20.00;67.20;;;;;;5052207;28;20140;-34
2023/09/03 08:21:23;;;;;;;1.48;1.38;;;;;;;;;;5052562;28;20133;-34
2023/09/03 08:23:49;;;;;;;2.95;1.40;;;19.80;85.00;;;;;;5051799;28;20124;-38
2023/09/03 08:26:16;;;;;;;1.48;1.33;;;18.90;84.20;;;;;;5052359;28;20141;-36
2023/09/03 08:28:43;;;;;;;1.48;1.38;;;;;;;;;;5052358;28;20132;-34
2023/09/03 08:31:10;;;;;;;1.38;1.25;;;20.00;85.10;;;;;;5053098;28;20486;-37
2023/09/03 08:33:37;;;;;;;1.40;1.30;;;;;;;;;;5051889;28;20081;-35
2023/09/03 08:36:06;;;;;;;1.30;1.20;;;20.20;85.20;;;;;;5053308;28;20082;-37
2023/09/03 08:38:32;;;;;;;1.30;1.10;;;19.80;70.90;;;;;;5071904;28;20525;-39
2023/09/03 08:40:59;;;;;;;1.38;1.23;;;;;;;;;;5071743;28;20135;-33
2023/09/03 08:43:27;;;;;;;1.45;1.30;;;19.90;85.00;;;;;;5071749;28;20131;-36
2023/09/03 08:45:56;;;;;;;1.25;1.10;;;20.10;67.20;;;;;;5071677;28;20045;-35
2023/09/03 08:48:23;;;;;;;1.48;1.33;;;20.30;85.20;;;;;;5055971;28;20517;-38
2023/09/03 08:50:50;;;;;;;1.30;1.17;;;;;;;;;;5071116;28;20135;-34
2023/09/03 08:53:18;;;;;;;1.30;1.20;;;20.50;84.80;;;;;;5071535;28;20127;-37
2023/09/03 08:55:45;;;;;;;1.40;1.30;;;20.30;84.80;;;;;;5071868;28;20128;-36
2023/09/03 08:58:13;;;;;;;1.20;1.10;;;;;;;;;;5071626;28;20489;-33
2023/09/03 09:00:39;;;;;;;1.98;1.33;;;19.50;84.20;;;;;;5065619;28;20064;-36
2023/09/03 09:03:07;;;;;;;1.67;1.20;;;19.90;80.60;;;;;;5066905;28;20394;-35
2023/09/03 09:05:35;;;;;;;1.98;1.10;;;;;;;;;;5070645;28;20128;-38
2023/09/03 09:08:02;;;;;;;1.40;1.20;;;19.90;73.60;;;;;;5059671;28;20101;-35
2023/09/03 09:10:32;;;;;;;1.30;1.20;;;20.40;85.00;;;;;;5071900;28;20123;-36
2023/09/03 09:13:03;;;;;;;1.30;1.20;;;20.40;84.90;;;;;;5071204;28;20087;-34
2023/09/03 09:15:30;;;;;;;1.52;1.10;;;;;;;;;;5071704;28;20102;-37
2023/09/03 09:17:57;;;;;;;1.42;1.20;;;20.90;84.90;;;;;;5071603;28;20131;-35
2023/09/03 09:20:23;;;;;;;1.60;1.20;;;20.00;84.40;;;;;;5072650;28;20135;-39
2023/09/03 09:22:51;;;;;;;2.05;1.27;;;;;;;;;;5063227;28;20124;-34
2023/09/03 09:25:21;;;;;;;1.10;1.00;;;20.10;83.80;;;;;;5064678;28;20123;-39
2023/09/03 09:27:49;;;;;;;1.20;1.10;;;20.70;84.50;;;;;;5063705;28;20048;-36
2023/09/03 09:30:19;;;;;;;1.05;0.90;;;20.30;83.60;;;;;;5064782;28;20128;-29
2023/09/03 09:32:45;;;;;;;1.33;1.10;;;20.50;75.70;;;;;;5063195;28;20099;-29
2023/09/03 09:35:22;;;;;;;1.10;1.00;;;21.20;84.20;;;;;;5065513;28;20128;-30
2023/09/03 09:37:49;;;;;;;1.10;1.00;;;20.60;75.90;;;;;;5060261;28;20048;-30
2023/09/03 09:40:16;;;;;;;1.20;1.08;;;20.40;83.10;;;;;;5063616;28;20127;-30
2023/09/03 09:42:52;;;;;;;2.97;1.20;;;20.80;65.80;;;;;;5064299;28;20131;-35
2023/09/03 09:45:19;;;;;;;1.83;1.00;;;;;;;;;;5054557;28;20045;-35
2023/09/03 09:47:46;;;;;;;1.77;1.20;;;21.40;83.10;;;;;;5054747;28;20123;-29
2023/09/03 09:50:13;;;;;;;1.08;0.98;;;;;;;;;;5054628;28;20060;-31
2023/09/03 09:52:40;;;;;;;1.80;1.17;;;21.50;82.90;;;;;;5054423;28;20120;-30
2023/09/03 09:55:08;;;;;;;2.40;1.20;;;21.10;79.30;;;;;;5054819;28;20049;-30
2023/09/03 09:57:34;;;;;;;2.72;1.20;;;21.40;82.80;;;;;;5055472;28;20131;-30
2023/09/03 10:00:04;;;;;;;1.20;1.10;;;20.70;82.70;;;;;;5075065;28;20056;-29
2023/09/03 10:02:32;;;;;;;1.50;1.23;;;21.90;82.90;;;;;;5073886;28;20056;-30
2023/09/03 10:04:59;;;;;;;2.17;1.10;;;21.40;82.60;;;;;;5074550;28;20044;-30
2023/09/03 10:07:27;;;;;;;1.20;1.10;;;;;;;;;;5074719;28;20080;-33
2023/09/03 10:09:53;;;;;;;1.40;1.00;;;21.80;83.10;;;;;;5074831;28;20061;-30
2023/09/03 10:12:20;;;;;;;1.60;1.23;;;;;;;;;;5070156;28;20127;-32
2023/09/03 10:14:47;;;;;;;1.20;1.10;;;21.60;82.50;;;;;;5061230;28;20121;-30
2023/09/03 10:17:15;;;;;;;1.45;1.20;;;21.20;64.90;;;;;;5054409;28;20503;-36
2023/09/03 10:19:43;;;;;;;0.93;0.90;;;21.30;82.50;;;;;;5054472;28;20128;-30
2023/09/03 10:22:12;;;;;;;2.05;1.20;;;21.20;64.80;;;;;;5054503;28;20080;-35
2023/09/03 10:24:39;;;;;;;0.98;0.90;;;21.20;82.00;;;;;;5054125;28;20128;-30
2023/09/03 10:27:06;;;;;;;1.75;1.20;;;21.90;82.70;;;;;;5054436;28;20616;-30
2023/09/03 10:29:34;;;;;;;2.03;1.10;;;21.70;82.20;;;;;;5054630;28;20059;-30
2023/09/03 10:32:01;;;;;;;2.10;1.45;;;21.20;64.70;;;;;;5053541;28;20146;-35
2023/09/03 10:34:30;;;;;;;3.75;1.40;;;20.90;81.90;;;;;;5054053;28;20056;-29
2023/09/03 10:37:04;;;;;;;1.70;1.13;;;22.30;78.10;;;;;;5063219;28;20058;-38
2023/09/03 10:39:31;;;;;;;2.17;1.20;;;;;;;;;;5073968;28;20098;-36
2023/09/03 10:42:27;;;;;;;2.10;1.10;;;21.40;83.10;;;;;;5073967;28;20521;-36
2023/09/03 10:44:54;;;;;;;2.90;1.30;;;;;;;;;;5058390;28;20048;-37
2023/09/03 10:47:21;;;;;;;1.52;1.10;;;;;;;;;;5054113;28;20135;-33
2023/09/03 10:49:50;;;;;;;1.70;1.17;;;21.10;82.70;;;;;;5053884;28;20554;-36
2023/09/03 10:52:40;;;;;;;2.00;1.40;;;21.10;65.10;;;;;;5053957;28;20128;-39
2023/09/03 10:55:15;;;;;;;1.80;1.10;;;21.00;65.30;;;;;;5050488;28;20041;-31
2023/09/03 10:57:41;;;;;;;1.75;1.20;;;20.90;67.70;;;;;;5074014;28;20148;-31
2023/09/03 11:00:15;;;;;;;2.33;1.30;;;21.30;65.70;;;;;;5072699;28;20537;-30
2023/09/03 11:02:42;;;;;;;2.30;1.30;;;21.40;83.20;;;;;;5073862;28;20044;-31
2023/09/03 11:05:11;;;;;;;1.52;1.15;;;20.80;82.90;;;;;;5073737;28;20041;-30
2023/09/03 11:07:38;;;;;;;1.42;1.00;;;21.10;82.70;;;;;;5073433;28;20123;-30
2023/09/03 11:10:39;;;;;;;2.38;1.30;;;21.20;82.90;;;;;;5073707;28;20143;-31
2023/09/03 11:13:10;;;;;;;1.67;1.27;;;20.90;65.60;;;;;;5011171;28;20144;-30
2023/09/03 11:15:37;;;;;;;1.63;1.20;;;20.50;83.00;;;;;;5010842;28;20100;-29
2023/09/03 11:18:03;;;;;;;1.23;1.02;;;20.80;83.20;;;;;;5040583;28;20576;-30
2023/09/03 11:20:32;;;;;;;2.58;1.40;;;21.30;73.50;;;;;;5073401;28;20139;-32
2023/09/03 11:22:59;;;;;;;2.15;1.20;;;20.60;76.70;;;;;;5073049;28;20083;-31
2023/09/03 11:25:32;;;;;;;2.10;1.35;;;21.70;83.30;;;;;;5073472;28;20123;-30
2023/09/03 11:27:59;;;;;;;1.60;1.27;;;21.60;76.10;;;;;;5073108;28;20059;-32
2023/09/03 11:30:26;;;;;;;2.38;1.10;;;21.40;83.20;;;;;;5073210;28;20131;-31
2023/09/03 11:32:53;;;;;;;2.30;1.20;;;;;;;;;;5071319;28;20127;-32
2023/09/03 11:35:19;;;;;;;1.80;1.30;;;21.80;83.60;;;;;;5073166;28;20128;-31
2023/09/03 11:37:47;;;;;;;3.65;1.30;;;20.60;82.90;;;;;;5072614;28;20127;-30
2023/09/03 11:40:15;;;;;;;2.03;1.50;;;20.90;71.00;;;;;;5072856;28;20132;-31
2023/09/03 11:42:42;;;;;;;2.80;1.30;;;21.30;83.70;;;;;;5072560;28;20469;-30
2023/09/03 11:45:11;;;;;;;1.48;1.15;;;20.80;65.80;;;;;;5072785;28;20052;-34
2023/09/03 11:47:38;;;;;;;2.08;1.30;;;21.20;83.60;;;;;;5065946;28;20053;-30
2023/09/03 11:50:10;;;;;;;1.80;1.13;;;20.80;65.90;;;;;;5054015;28;20053;-33
2023/09/03 11:52:36;;;;;;;2.83;1.38;;;20.90;83.50;;;;;;5072502;28;20055;-30
2023/09/03 11:55:05;;;;;;;1.30;1.15;;;20.50;71.30;;;;;;5072795;28;20132;-30
2023/09/03 11:57:32;;;;;;;1.73;1.15;;;20.90;83.50;;;;;;5071828;28;20128;-30
2023/09/03 11:59:59;;;;;;;1.30;1.10;;;20.40;67.20;;;;;;5072283;28;20485;-30
2023/09/03 12:02:26;;;;;;;1.70;1.17;;;20.60;76.90;;;;;;5072285;28;20139;-32
2023/09/03 12:04:54;;;;;;;1.30;1.20;;;;;;;;;;5070588;28;20072;-32
2023/09/03 12:07:20;;;;;;;1.95;1.15;;;19.90;77.50;;;;;;5072651;28;20128;-31
2023/09/03 12:09:48;;;;;;;1.13;1.00;;;20.00;82.70;;;;;;5072151;28;20079;-30
2023/09/03 12:12:16;;;;;;;1.33;1.15;;;20.90;83.60;;;;;;5072250;28;20143;-32
2023/09/03 12:14:44;;;;;;;1.77;1.02;;;20.50;83.10;;;;;;5072416;28;20127;-31
2023/09/03 12:17:10;;;;;;;2.05;1.30;;;20.70;83.10;;;;;;5072250;28;20127;-30
2023/09/03 12:19:40;;;;;;;1.90;1.40;;;21.10;83.40;;;;;;5063057;28;20136;-30
2023/09/03 12:22:07;;;;;;;3.08;1.20;;;20.50;83.10;;;;;;5051896;28;20123;-31
2023/09/03 12:24:34;;;;;;;2.05;1.08;;;20.40;67.20;;;;;;5052094;28;20095;-31
2023/09/03 12:27:03;;;;;;;1.48;1.05;;;20.70;83.20;;;;;;5052142;28;20048;-32
2023/09/03 12:29:33;;;;;;;1.65;1.17;;;20.80;66.00;;;;;;5052227;28;20081;-31
2023/09/03 12:32:00;;;;;;;1.55;1.17;;;20.50;82.90;;;;;;5052285;28;20139;-30
2023/09/03 12:34:33;;;;;;;1.52;1.20;;;20.50;75.20;;;;;;5052065;28;20132;-37
2023/09/03 12:37:00;;;;;;;1.52;1.20;;;21.20;83.80;;;;;;5069095;28;20056;-36
2023/09/03 12:39:30;;;;;;;2.42;1.20;;;20.80;66.00;;;;;;5072223;28;20083;-34
2023/09/03 12:41:57;;;;;;;1.30;1.10;;;20.90;76.00;;;;;;5071887;28;20123;-37
2023/09/03 12:44:24;;;;;;;2.15;1.30;;;20.80;83.30;;;;;;5071573;28;20516;-37
2023/09/03 12:46:52;;;;;;;2.55;1.20;;;20.50;71.40;;;;;;5071974;28;20131;-36
2023/09/03 12:49:19;;;;;;;2.10;1.15;;;20.50;72.10;;;;;;5072045;28;20127;-37
2023/09/03 12:51:47;;;;;;;1.80;1.10;;;;;;;;;;5064569;28;20085;-35
2023/09/03 12:54:14;;;;;;;1.55;1.20;;;20.70;83.10;;;;;;5051100;28;20137;-38
2023/09/03 12:56:41;;;;;;;1.60;1.20;;;21.40;70.40;;;;;;5051728;28;20552;-36
2023/09/03 12:59:08;;;;;;;1.88;1.20;;;21.30;83.60;;;;;;5051449;28;20128;-36
2023/09/03 13:01:35;;;;;;;1.90;1.30;;;20.90;83.00;;;;;;5052059;28;20131;-35
2023/09/03 13:04:03;;;;;;;1.63;1.10;;;20.90;83.20;;;;;;5051528;28;20471;-38
2023/09/03 13:06:30;;;;;;;1.60;1.20;;;21.60;83.50;;;;;;5051754;28;20139;-36
2023/09/03 13:08:57;;;;;;;1.27;1.08;;;20.90;83.30;;;;;;5068355;28;20131;-37
2023/09/03 13:11:23;;;;;;;1.35;1.10;;;20.50;70.90;;;;;;5071456;28;20128;-35